San Diego, California
Traffic Map
Current Weather Conditions
San Diego, California
Broken Clouds
Broken Clouds
72°
Feels Like: 72°
Wind Chill: 72° Ceiling: 2600
Heat Index: 72° Visibility: 10mi
Dew Point: 60° Wind: 10mph
Humidity: 66% Direction: 310° (NW)
Pressure: 29.91in Gusts: 0mph
Raw Report DataKSAN 202051Z 31009KT 10SM BKN026 22/16 A2991 RMK AO2 SLP127 T02220156 58019
Traffic Incident Summary
Active as of:
Severity:
Category:
InformationThere was an issue retrieving the traffic information for this location. Please try a different location or try again shortly.
Advertisements
Track Severe Weather on mobile